Time;durP1;ratioP1;P1;durP2;ratioP2;P2;SDS_P1;SDS_P2;PMS_P1;PMS_P2;Temp;Humidity;BMP_temperature;BMP_pressure;BME280_temperature;BME280_humidity;BME280_pressure;Samples;Min_cycle;Max_cycle;Signal;HPM_P1;HPM_P2
2023/04/17 00:01:30;;;;;;;;;;;8.50;73.70;;;;;;5063631;28;19997;-75
2023/04/17 00:03:56;;;;;;;;;;;8.50;73.70;;;;;;5021922;28;19924;-77
2023/04/17 00:06:22;;;;;;;;;;;8.50;73.80;;;;;;5050415;28;19921;-78
2023/04/17 00:08:48;;;;;;;;;;;8.50;73.80;;;;;;5034178;28;19962;-77
2023/04/17 00:11:14;;;;;;;;;;;8.40;73.70;;;;;;5062605;28;20010;-77
2023/04/17 00:13:39;;;;;;;;;;;8.50;73.80;;;;;;5048931;28;19924;-78
2023/04/17 00:16:05;;;;;;;;;;;8.50;73.80;;;;;;5034554;28;19928;-78
2023/04/17 00:18:31;;;;;;;;;;;8.50;73.80;;;;;;5019123;28;23155;-77
2023/04/17 00:20:56;;;;;;;;;;;8.50;73.80;;;;;;5033681;28;19928;-77
2023/04/17 00:23:22;;;;;;;;;;;8.40;73.70;;;;;;5046786;28;19935;-76
2023/04/17 00:25:47;;;;;;;;;;;8.50;73.80;;;;;;5048140;28;20530;-77
2023/04/17 00:28:13;;;;;;;;;;;8.50;73.80;;;;;;5064100;28;20006;-76
2023/04/17 00:30:38;;;;;;;;;;;8.40;73.80;;;;;;5050706;28;19928;-77
2023/04/17 00:33:04;;;;;;;;;;;8.40;73.80;;;;;;5034144;28;19978;-76
2023/04/17 00:35:29;;;;;;;;;;;8.40;73.80;;;;;;5063384;28;19920;-77
2023/04/17 00:37:55;;;;;;;;;;;8.40;73.80;;;;;;5064205;28;19956;-78
2023/04/17 00:40:20;;;;;;;;;;;8.40;73.80;;;;;;5036181;28;19974;-77
2023/04/17 00:42:51;;;;;;;;;;;8.40;73.80;;;;;;5034881;28;19927;-76
2023/04/17 00:45:18;;;;;;;;;;;8.50;73.80;;;;;;5051610;28;19920;-76
2023/04/17 00:47:43;;;;;;;;;;;8.50;73.80;;;;;;5064559;28;19982;-77
2023/04/17 00:50:09;;;;;;;;;;;8.40;73.80;;;;;;5066158;28;19924;-77
2023/04/17 00:52:34;;;;;;;;;;;8.50;73.90;;;;;;5047684;28;19951;-76
2023/04/17 00:55:00;;;;;;;;;;;8.50;73.90;;;;;;5034020;28;19963;-77
2023/04/17 00:57:25;;;;;;;;;;;8.50;73.90;;;;;;5035382;28;20405;-77
2023/04/17 00:59:51;;;;;;;;;;;8.40;73.80;;;;;;5050290;28;19920;-76
2023/04/17 01:02:16;;;;;;;;;;;8.50;73.90;;;;;;5027925;28;19920;-77
2023/04/17 01:04:42;;;;;;;;;;;8.40;73.90;;;;;;5048170;28;19925;-77
2023/04/17 01:07:07;;;;;;;;;;;8.50;73.90;;;;;;5049499;28;19920;-77
2023/04/17 01:09:33;;;;;;;;;;;8.50;73.90;;;;;;5062244;28;19927;-77
2023/04/17 01:12:19;;;;;;;;;;;8.50;73.90;;;;;;5049914;28;20390;-77
2023/04/17 01:14:44;;;;;;;;;;;8.50;73.90;;;;;;5049177;28;19928;-76
2023/04/17 01:17:13;;;;;;;;;;;8.50;73.90;;;;;;5034713;28;19946;-78
2023/04/17 01:19:39;;;;;;;;;;;8.50;73.90;;;;;;5043631;28;19967;-77
2023/04/17 01:22:04;;;;;;;;;;;8.50;73.90;;;;;;5021254;28;20335;-77
2023/04/17 01:24:29;;;;;;;;;;;8.50;73.90;;;;;;5032127;28;19927;-75
2023/04/17 01:26:55;;;;;;;;;;;8.50;74.00;;;;;;5031652;28;19987;-77
2023/04/17 01:29:20;;;;;;;;;;;8.50;73.80;;;;;;5030204;28;19929;-77
2023/04/17 01:31:46;;;;;;;;;;;8.50;73.90;;;;;;5032890;28;19924;-77
2023/04/17 01:34:11;;;;;;;;;;;8.50;73.90;;;;;;5048066;28;23701;-78
2023/04/17 01:36:37;;;;;;;;;;;8.50;73.90;;;;;;5065532;28;19920;-77
2023/04/17 01:39:03;;;;;;;;;;;8.50;74.00;;;;;;5048211;28;20334;-76
2023/04/17 01:41:28;;;;;;;;;;;8.50;73.80;;;;;;5066233;28;19959;-77
2023/04/17 01:43:53;;;;;;;;;;;8.50;73.90;;;;;;5046676;28;20974;-76
2023/04/17 01:46:19;;;;;;;;;;;8.50;73.90;;;;;;5033775;28;19952;-77
2023/04/17 01:48:44;;;;;;;;;;;8.50;73.90;;;;;;5034907;28;19928;-77
2023/04/17 01:51:10;;;;;;;;;;;8.50;74.00;;;;;;5063861;28;20788;-76
2023/04/17 01:53:36;;;;;;;;;;;8.50;73.90;;;;;;5062587;28;19960;-76
2023/04/17 01:56:02;;;;;;;;;;;8.50;73.90;;;;;;5046683;28;20800;-78
2023/04/17 01:58:27;;;;;;;;;;;8.50;73.90;;;;;;5064856;28;19920;-77
2023/04/17 02:00:53;;;;;;;;;;;8.50;73.90;;;;;;5048617;28;19939;-77
2023/04/17 02:03:18;;;;;;;;;;;8.50;74.00;;;;;;5036573;28;19928;-77
2023/04/17 02:05:44;;;;;;;;;;;8.50;73.90;;;;;;5038382;28;19920;-77
2023/04/17 02:08:10;;;;;;;;;;;8.50;74.00;;;;;;5064745;28;19920;-76
2023/04/17 02:10:35;;;;;;;;;;;8.50;74.00;;;;;;5052082;28;19920;-78
2023/04/17 02:13:01;;;;;;;;;;;8.50;74.00;;;;;;5036111;28;19928;-77
2023/04/17 02:15:26;;;;;;;;;;;8.50;74.00;;;;;;5051670;28;20422;-77
2023/04/17 02:17:52;;;;;;;;;;;8.50;74.00;;;;;;5051783;28;19927;-78
2023/04/17 02:20:17;;;;;;;;;;;8.50;74.00;;;;;;5052119;28;20767;-77
2023/04/17 02:22:43;;;;;;;;;;;8.50;74.00;;;;;;5051488;28;20385;-78
2023/04/17 02:25:08;;;;;;;;;;;8.50;74.00;;;;;;5048784;28;19932;-77
2023/04/17 02:27:34;;;;;;;;;;;8.50;74.00;;;;;;5049880;28;19925;-78
2023/04/17 02:29:59;;;;;;;;;;;8.50;74.00;;;;;;5033721;28;19943;-78
2023/04/17 02:32:25;;;;;;;;;;;8.50;74.00;;;;;;5065494;28;19936;-76
2023/04/17 02:34:51;;;;;;;;;;;8.50;74.00;;;;;;5050025;28;19928;-78
2023/04/17 02:37:16;;;;;;;;;;;8.50;74.10;;;;;;5052251;28;20694;-78
2023/04/17 02:39:42;;;;;;;;;;;8.40;74.00;;;;;;5053773;28;20439;-77
2023/04/17 02:42:09;;;;;;;;;;;8.40;74.00;;;;;;5051470;28;20007;-77
2023/04/17 02:44:34;;;;;;;;;;;8.40;74.00;;;;;;5052177;28;19924;-77
2023/04/17 02:46:59;;;;;;;;;;;8.40;74.00;;;;;;5050714;28;19920;-77
2023/04/17 02:49:25;;;;;;;;;;;8.50;74.10;;;;;;5067469;28;20510;-78
2023/04/17 02:51:50;;;;;;;;;;;8.40;74.00;;;;;;5040918;28;19977;-78
2023/04/17 02:54:16;;;;;;;;;;;8.40;74.00;;;;;;5038188;28;19928;-75
2023/04/17 02:56:41;;;;;;;;;;;8.40;74.10;;;;;;5049004;28;19920;-77
2023/04/17 02:59:07;;;;;;;;;;;8.40;74.10;;;;;;5052589;28;19944;-77
2023/04/17 03:01:32;;;;;;;;;;;8.40;74.10;;;;;;5065935;28;19944;-76
2023/04/17 03:03:58;;;;;;;;;;;8.40;74.10;;;;;;5035482;28;19985;-75
2023/04/17 03:06:23;;;;;;;;;;;8.40;74.10;;;;;;5065253;28;19920;-77
2023/04/17 03:08:49;;;;;;;;;;;8.30;74.10;;;;;;5051815;28;20344;-76
2023/04/17 03:11:15;;;;;;;;;;;8.30;74.10;;;;;;5022987;28;20475;-77
2023/04/17 03:13:41;;;;;;;;;;;8.30;74.10;;;;;;5068150;28;20683;-77
2023/04/17 03:16:07;;;;;;;;;;;8.30;74.20;;;;;;5049528;28;19920;-76
2023/04/17 03:18:33;;;;;;;;;;;8.30;74.20;;;;;;5064657;28;20645;-77
2023/04/17 03:20:59;;;;;;;;;;;8.30;74.20;;;;;;5050043;28;19925;-77
2023/04/17 03:23:24;;;;;;;;;;;8.30;74.20;;;;;;5050239;28;19921;-76
2023/04/17 03:25:50;;;;;;;;;;;8.20;74.20;;;;;;5052423;28;19928;-77
2023/04/17 03:28:15;;;;;;;;;;;8.20;74.30;;;;;;5041009;28;19920;-77
2023/04/17 03:30:41;;;;;;;;;;;8.20;74.30;;;;;;5033071;28;20041;-78
2023/04/17 03:33:06;;;;;;;;;;;8.20;74.30;;;;;;5052112;28;19948;-78
2023/04/17 03:35:32;;;;;;;;;;;8.20;74.30;;;;;;5047369;28;19974;-77
2023/04/17 03:37:57;;;;;;;;;;;8.20;74.30;;;;;;5021711;28;19921;-76
2023/04/17 03:40:22;;;;;;;;;;;8.20;74.30;;;;;;5036205;28;19932;-76
2023/04/17 03:42:48;;;;;;;;;;;8.20;74.30;;;;;;5038742;28;20583;-77
2023/04/17 03:45:15;;;;;;;;;;;8.20;74.30;;;;;;5066484;28;19929;-77
2023/04/17 03:47:41;;;;;;;;;;;8.10;74.30;;;;;;5037070;28;20016;-78
2023/04/17 03:50:06;;;;;;;;;;;8.10;74.30;;;;;;5053248;28;19920;-77
2023/04/17 03:52:32;;;;;;;;;;;8.10;74.40;;;;;;5052820;28;19924;-78
2023/04/17 03:54:57;;;;;;;;;;;8.10;74.40;;;;;;5033076;28;20446;-78
2023/04/17 03:57:23;;;;;;;;;;;8.10;74.40;;;;;;5050112;28;19929;-77
2023/04/17 03:59:48;;;;;;;;;;;8.10;74.40;;;;;;5034911;28;19969;-78
2023/04/17 04:02:14;;;;;;;;;;;8.10;74.40;;;;;;5066317;28;19964;-77
2023/04/17 04:04:39;;;;;;;;;;;8.10;74.50;;;;;;5067955;28;19935;-77
2023/04/17 04:07:05;;;;;;;;;;;8.10;74.40;;;;;;5049269;28;19920;-78
2023/04/17 04:09:30;;;;;;;;;;;8.10;74.40;;;;;;5064216;28;20589;-76
2023/04/17 04:11:56;;;;;;;;;;;8.10;74.40;;;;;;5037042;28;19927;-77
2023/04/17 04:14:21;;;;;;;;;;;8.10;74.40;;;;;;5035181;28;19924;-78
2023/04/17 04:16:47;;;;;;;;;;;8.10;74.40;;;;;;5050434;28;19920;-76
2023/04/17 04:19:12;;;;;;;;;;;8.10;74.40;;;;;;5062048;28;20549;-75
2023/04/17 04:21:38;;;;;;;;;;;8.10;74.50;;;;;;5064917;28;20333;-78
2023/04/17 04:24:03;;;;;;;;;;;8.20;74.40;;;;;;5035789;28;19925;-77
2023/04/17 04:26:29;;;;;;;;;;;8.20;74.40;;;;;;5048803;28;19997;-76
2023/04/17 04:28:55;;;;;;;;;;;8.20;74.40;;;;;;5065844;28;20070;-76
2023/04/17 04:31:20;;;;;;;;;;;8.20;74.40;;;;;;5060036;28;19920;-77
2023/04/17 04:33:46;;;;;;;;;;;8.20;74.40;;;;;;5062464;28;20626;-78
2023/04/17 04:36:12;;;;;;;;;;;8.20;74.40;;;;;;5052581;28;19920;-77
2023/04/17 04:38:38;;;;;;;;;;;8.20;74.40;;;;;;5061218;28;19933;-78
2023/04/17 04:41:09;;;;;;;;;;;8.20;74.50;;;;;;5032853;28;19982;-77
2023/04/17 04:43:34;;;;;;;;;;;8.30;74.50;;;;;;5048076;28;20560;-77
2023/04/17 04:46:00;;;;;;;;;;;8.30;74.50;;;;;;5062027;28;19920;-77
2023/04/17 04:48:25;;;;;;;;;;;8.30;74.50;;;;;;5048707;28;19924;-77
2023/04/17 04:50:51;;;;;;;;;;;8.30;74.50;;;;;;5048640;28;19920;-77
2023/04/17 04:53:16;;;;;;;;;;;8.30;74.50;;;;;;5037135;28;19932;-77
2023/04/17 04:55:42;;;;;;;;;;;8.30;74.50;;;;;;5045818;28;20307;-78
2023/04/17 04:58:08;;;;;;;;;;;8.30;74.50;;;;;;5034132;28;19924;-78
2023/04/17 05:00:33;;;;;;;;;;;8.30;74.40;;;;;;5033698;28;19924;-77
2023/04/17 05:02:59;;;;;;;;;;;8.30;74.40;;;;;;5048466;28;20548;-77
2023/04/17 05:05:24;;;;;;;;;;;8.30;74.40;;;;;;5068259;28;20028;-78
2023/04/17 05:07:52;;;;;;;;;;;8.30;74.50;;;;;;5050664;28;20599;-78
2023/04/17 05:10:17;;;;;;;;;;;8.40;74.50;;;;;;5039302;28;19916;-77
2023/04/17 05:12:43;;;;;;;;;;;8.40;74.50;;;;;;5047131;28;19916;-78
2023/04/17 05:15:08;;;;;;;;;;;8.40;74.50;;;;;;5065774;28;19930;-75
2023/04/17 05:17:35;;;;;;;;;;;8.40;74.40;;;;;;5047543;28;19921;-78
2023/04/17 05:20:00;;;;;;;;;;;8.40;74.50;;;;;;5049963;28;20372;-78
2023/04/17 05:22:26;;;;;;;;;;;8.40;74.40;;;;;;5034521;28;20013;-78
2023/04/17 05:24:51;;;;;;;;;;;8.40;74.50;;;;;;5049463;28;19921;-78
2023/04/17 05:27:17;;;;;;;;;;;8.40;74.40;;;;;;5035422;28;19921;-78
2023/04/17 05:29:42;;;;;;;;;;;8.50;74.40;;;;;;5033797;28;20387;-77
2023/04/17 05:32:08;;;;;;;;;;;8.50;74.40;;;;;;5045844;28;19962;-77
2023/04/17 05:34:33;;;;;;;;;;;8.50;74.40;;;;;;5047698;28;20002;-79
2023/04/17 05:36:59;;;;;;;;;;;8.50;74.50;;;;;;5033260;28;19935;-78
2023/04/17 05:39:24;;;;;;;;;;;8.50;74.40;;;;;;5035572;28;19931;-77
2023/04/17 05:41:50;;;;;;;;;;;8.60;74.50;;;;;;5053869;28;19924;-78
2023/04/17 05:44:15;;;;;;;;;;;8.60;74.50;;;;;;5053476;28;19964;-78
2023/04/17 05:46:41;;;;;;;;;;;8.60;74.50;;;;;;5050556;28;19928;-75
2023/04/17 05:49:06;;;;;;;;;;;8.60;74.50;;;;;;5048948;28;20279;-78
2023/04/17 05:51:31;;;;;;;;;;;8.60;74.40;;;;;;5067095;28;19920;-77
2023/04/17 05:53:57;;;;;;;;;;;8.70;74.50;;;;;;5052744;28;19924;-76
2023/04/17 05:56:22;;;;;;;;;;;8.70;74.50;;;;;;5038105;28;20417;-77
2023/04/17 05:58:48;;;;;;;;;;;8.70;74.40;;;;;;5050661;28;19928;-77
2023/04/17 06:01:16;;;;;;;;;;;8.70;74.40;;;;;;5069192;28;19956;-78
2023/04/17 06:03:41;;;;;;;;;;;8.80;74.40;;;;;;5049903;28;19964;-77
2023/04/17 06:06:07;;;;;;;;;;;8.80;74.40;;;;;;5048428;28;20420;-78
2023/04/17 06:08:32;;;;;;;;;;;8.90;74.40;;;;;;5036574;28;19920;-76
2023/04/17 06:10:58;;;;;;;;;;;8.90;74.40;;;;;;5050590;28;19924;-78
2023/04/17 06:13:23;;;;;;;;;;;8.90;74.40;;;;;;5051536;28;19931;-78
2023/04/17 06:15:49;;;;;;;;;;;8.90;74.30;;;;;;5036203;28;19924;-76
2023/04/17 06:18:16;;;;;;;;;;;9.00;74.40;;;;;;5035330;28;19921;-76
2023/04/17 06:20:42;;;;;;;;;;;9.00;74.30;;;;;;5034207;28;20658;-78
2023/04/17 06:23:07;;;;;;;;;;;9.10;74.30;;;;;;5055032;28;19971;-78
2023/04/17 06:25:33;;;;;;;;;;;9.10;74.20;;;;;;5052101;28;20004;-77
2023/04/17 06:27:58;;;;;;;;;;;9.20;74.30;;;;;;5053651;28;19928;-78
2023/04/17 06:30:24;;;;;;;;;;;9.20;74.20;;;;;;5037552;28;19917;-78
2023/04/17 06:32:49;;;;;;;;;;;9.30;74.20;;;;;;5047394;28;20003;-77
2023/04/17 06:35:15;;;;;;;;;;;9.30;74.20;;;;;;5051021;28;19916;-78
2023/04/17 06:37:40;;;;;;;;;;;9.40;74.20;;;;;;5049723;28;19921;-76
2023/04/17 06:40:06;;;;;;;;;;;9.40;74.10;;;;;;5036133;28;19928;-78
2023/04/17 06:42:34;;;;;;;;;;;9.50;74.10;;;;;;5048217;28;19917;-77
2023/04/17 06:44:59;;;;;;;;;;;9.50;74.10;;;;;;5050517;28;19920;-78
2023/04/17 06:47:25;;;;;;;;;;;9.50;74.00;;;;;;5063485;28;19917;-78
2023/04/17 06:49:50;;;;;;;;;;;9.60;74.10;;;;;;5033132;28;19932;-77
2023/04/17 06:52:19;;;;;;;;;;;9.60;74.00;;;;;;5051126;28;19924;-78
2023/04/17 06:54:44;;;;;;;;;;;9.60;74.00;;;;;;5050962;28;19969;-79
2023/04/17 06:57:10;;;;;;;;;;;9.70;74.00;;;;;;5052187;28;20325;-75
2023/04/17 06:59:36;;;;;;;;;;;9.70;74.00;;;;;;5063404;28;19974;-78
2023/04/17 07:02:02;;;;;;;;;;;9.70;74.00;;;;;;5052304;28;19917;-77
2023/04/17 07:04:29;;;;;;;;;;;9.80;74.00;;;;;;5063091;28;19929;-78
2023/04/17 07:06:54;;;;;;;;;;;9.80;73.90;;;;;;5048580;28;19982;-77
2023/04/17 07:09:20;;;;;;;;;;;9.80;73.90;;;;;;5053864;28;20619;-77
2023/04/17 07:11:45;;;;;;;;;;;9.80;73.90;;;;;;5048525;28;20390;-78
2023/04/17 07:14:11;;;;;;;;;;;9.90;73.90;;;;;;5062848;28;19921;-78
2023/04/17 07:16:36;;;;;;;;;;;9.90;73.90;;;;;;5050803;28;19923;-78
2023/04/17 07:19:02;;;;;;;;;;;9.90;73.80;;;;;;5034635;28;19948;-78
2023/04/17 07:21:27;;;;;;;;;;;10.00;73.90;;;;;;5051777;28;20054;-77
2023/04/17 07:23:53;;;;;;;;;;;10.00;73.80;;;;;;5047463;28;20488;-77
2023/04/17 07:26:18;;;;;;;;;;;10.00;73.70;;;;;;5041847;28;19928;-78
2023/04/17 07:28:44;;;;;;;;;;;10.10;73.80;;;;;;5062866;28;19950;-76
2023/04/17 07:31:09;;;;;;;;;;;10.10;73.70;;;;;;5036683;28;20402;-78
2023/04/17 07:33:35;;;;;;;;;;;10.20;73.70;;;;;;5065831;28;19925;-77
2023/04/17 07:36:01;;;;;;;;;;;10.20;73.70;;;;;;5051518;28;20406;-78
2023/04/17 07:38:27;;;;;;;;;;;10.30;73.70;;;;;;5063812;28;19985;-78
2023/04/17 07:40:52;;;;;;;;;;;10.30;73.70;;;;;;5061132;28;20563;-76
2023/04/17 07:43:17;;;;;;;;;;;10.40;73.60;;;;;;5047516;28;19964;-78
2023/04/17 07:45:43;;;;;;;;;;;10.40;73.60;;;;;;5021977;28;20045;-77
2023/04/17 07:48:09;;;;;;;;;;;10.50;73.60;;;;;;5038384;28;19959;-78
2023/04/17 07:53:37;;;;;;;;;;;10.70;73.60;;;;;;5045310;28;19963;-76
2023/04/17 07:56:04;;;;;;;;;;;10.80;73.40;;;;;;5052896;28;20551;-77
2023/04/17 07:58:30;;;;;;;;;;;10.90;73.30;;;;;;5048033;28;19916;-78
2023/04/17 08:00:56;;;;;;;;;;;10.90;73.20;;;;;;5062343;28;19920;-77
2023/04/17 08:03:22;;;;;;;;;;;11.00;73.20;;;;;;5031098;28;19917;-76
2023/04/17 08:05:48;;;;;;;;;;;11.10;73.10;;;;;;5032337;28;19924;-78
2023/04/17 08:08:15;;;;;;;;;;;11.10;73.00;;;;;;5034728;28;19916;-76
2023/04/17 08:10:40;;;;;;;;;;;11.20;73.00;;;;;;5048982;28;20023;-78
2023/04/17 08:13:05;;;;;;;;;;;11.20;73.00;;;;;;5065178;28;20449;-78
2023/04/17 08:15:31;;;;;;;;;;;11.30;72.90;;;;;;5050338;28;19936;-76
2023/04/17 08:17:57;;;;;;;;;;;11.40;72.90;;;;;;5040036;28;19916;-77
2023/04/17 08:20:23;;;;;;;;;;;11.50;73.00;;;;;;5049919;28;20665;-76
2023/04/17 08:22:48;;;;;;;;;;;11.50;72.80;;;;;;5050173;28;20371;-77
2023/04/17 08:25:14;;;;;;;;;;;11.70;72.80;;;;;;5039915;28;20766;-78
2023/04/17 08:27:40;;;;;;;;;;;11.80;72.70;;;;;;5066603;28;19923;-77
2023/04/17 08:30:05;;;;;;;;;;;11.80;72.50;;;;;;5033582;28;19916;-78
2023/04/17 08:32:40;;;;;;;;;;;12.00;72.50;;;;;;5063102;28;20709;-76
2023/04/17 08:35:06;;;;;;;;;;;12.10;72.50;;;;;;5049217;28;19931;-76
2023/04/17 08:37:33;;;;;;;;;;;12.10;72.30;;;;;;5052254;28;19928;-78
2023/04/17 08:39:59;;;;;;;;;;;12.30;72.30;;;;;;5033076;28;20714;-77
2023/04/17 08:42:24;;;;;;;;;;;12.40;72.20;;;;;;5050139;28;19955;-75
2023/04/17 08:44:50;;;;;;;;;;;12.50;72.00;;;;;;5052552;28;19924;-77
2023/04/17 08:47:18;;;;;;;;;;;12.60;71.90;;;;;;5051454;28;19920;-78
2023/04/17 08:49:44;;;;;;;;;;;12.70;71.90;;;;;;5047051;28;19921;-78
2023/04/17 08:52:10;;;;;;;;;;;12.80;71.80;;;;;;5066019;28;19975;-78
2023/04/17 08:54:37;;;;;;;;;;;12.80;71.60;;;;;;5061038;28;20015;-77
2023/04/17 08:57:03;;;;;;;;;;;12.90;71.60;;;;;;5053043;28;20025;-78
2023/04/17 08:59:29;;;;;;;;;;;12.90;71.60;;;;;;5050436;28;19947;-79
2023/04/17 09:02:00;;;;;;;;;;;12.90;71.40;;;;;;5061794;28;19925;-78
2023/04/17 09:04:39;;;;;;;;;;;12.90;71.40;;;;;;5049391;28;19982;-77
2023/04/17 09:07:05;;;;;;;;;;;12.90;71.40;;;;;;5048257;28;20085;-78
2023/04/17 09:09:49;;;;;;;;;;;12.90;71.40;;;;;;5066818;28;19926;-77
2023/04/17 09:12:15;;;;;;;;;;;13.00;71.50;;;;;;5048641;28;20309;-77
2023/04/17 09:14:40;;;;;;;;;;;13.00;71.40;;;;;;5050885;28;20586;-78
2023/04/17 09:17:06;;;;;;;;;;;13.00;71.30;;;;;;5048531;28;19924;-78
2023/04/17 09:19:31;;;;;;;;;;;13.00;71.30;;;;;;5066785;28;19955;-77
2023/04/17 09:21:56;;;;;;;;;;;13.00;71.30;;;;;;5037158;28;19927;-78
2023/04/17 09:24:32;;;;;;;;;;;13.00;71.30;;;;;;5065376;28;19932;-77
2023/04/17 09:27:17;;;;;;;;;;;13.00;71.30;;;;;;5031265;28;19928;-78
2023/04/17 09:30:00;;;;;;;;;;;13.10;71.40;;;;;;5031699;28;19925;-76
2023/04/17 09:32:25;;;;;;;;;;;13.10;71.30;;;;;;5034113;28;20466;-78
2023/04/17 09:34:52;;;;;;;;;;;13.20;71.20;;;;;;5062257;28;19929;-78
2023/04/17 09:37:18;;;;;;;;;;;13.30;71.20;;;;;;5045454;28;19999;-78
2023/04/17 09:39:59;;;;;;;;;;;13.40;71.10;;;;;;5043904;28;20032;-77
2023/04/17 09:42:25;;;;;;;;;;;13.40;70.90;;;;;;5029387;28;19924;-77
2023/04/17 09:44:51;;;;;;;;;;;13.40;70.80;;;;;;5064761;28;19932;-77
2023/04/17 09:47:17;;;;;;;;;;;13.40;70.80;;;;;;5035693;28;20429;-78
2023/04/17 09:49:48;;;;;;;;;;;13.40;71.70;;;;;;5066204;28;20008;-76
2023/04/17 09:52:13;;;;;;;;;;;13.30;70.80;;;;;;5033809;28;19973;-78
2023/04/17 09:54:39;;;;;;;;;;;13.30;71.00;;;;;;5044959;28;19928;-78
2023/04/17 09:57:08;;;;;;;;;;;13.30;71.00;;;;;;5064680;28;20585;-75
2023/04/17 09:59:34;;;;;;;;;;;13.30;71.00;;;;;;5066995;28;19966;-76
2023/04/17 10:02:00;;;;;;;;;;;13.30;71.00;;;;;;5065319;28;20047;-78
2023/04/17 10:04:25;;;;;;;;;;;13.40;71.00;;;;;;5065184;28;19917;-76
2023/04/17 10:06:50;;;;;;;;;;;13.40;71.00;;;;;;5062660;28;19924;-77
2023/04/17 10:09:16;;;;;;;;;;;13.40;71.00;;;;;;5048452;28;19921;-78
2023/04/17 10:11:44;;;;;;;;;;;13.50;70.90;;;;;;5032453;28;19963;-78
2023/04/17 10:14:23;;;;;;;;;;;13.50;70.80;;;;;;5033887;28;19924;-78
2023/04/17 10:16:49;;;;;;;;;;;13.60;70.80;;;;;;5050615;28;19920;-76
2023/04/17 10:19:35;;;;;;;;;;;13.70;70.70;;;;;;5051695;28;19920;-78
2023/04/17 10:22:18;;;;;;;;;;;13.70;70.60;;;;;;5063878;28;19921;-78
2023/04/17 10:24:46;;;;;;;;;;;13.70;70.50;;;;;;5052120;28;20015;-78
2023/04/17 10:27:23;;;;;;;;;;;13.80;70.60;;;;;;5067475;28;19970;-78
2023/04/17 10:29:55;;;;;;;;;;;13.80;70.50;;;;;;5050787;28;20622;-77
2023/04/17 10:32:22;;;;;;;;;;;13.90;70.40;;;;;;5050461;28;20011;-78
2023/04/17 10:34:48;;;;;;;;;;;13.90;70.30;;;;;;5069589;28;19932;-79
2023/04/17 10:37:16;;;;;;;;;;;13.90;70.30;;;;;;5036603;28;19920;-77
2023/04/17 10:39:50;;;;;;;;;;;13.90;70.20;;;;;;5046209;28;19932;-77
2023/04/17 10:42:19;;;;;;;;;;;14.00;70.40;;;;;;5054756;28;19939;-78
2023/04/17 10:44:44;;;;;;;;;;;14.10;70.30;;;;;;5067695;28;19928;-78
2023/04/17 10:47:12;;;;;;;;;;;14.10;70.10;;;;;;5067951;28;19924;-77
2023/04/17 10:49:48;;;;;;;;;;;14.10;70.10;;;;;;5055286;28;19978;-76
2023/04/17 10:52:34;;;;;;;;;;;14.20;70.00;;;;;;5042005;28;19924;-77
2023/04/17 10:55:06;;;;;;;;;;;14.30;70.00;;;;;;5052368;28;19928;-77
2023/04/17 10:57:50;;;;;;;;;;;14.30;69.80;;;;;;5050064;28;19932;-77
2023/04/17 11:00:17;;;;;;;;;;;14.30;69.80;;;;;;5037555;28;19927;-77
2023/04/17 11:02:44;;;;;;;;;;;14.30;69.80;;;;;;5053140;28;20008;-77
2023/04/17 11:05:09;;;;;;;;;;;14.20;69.80;;;;;;5052855;28;19943;-78
2023/04/17 11:07:35;;;;;;;;;;;14.20;69.90;;;;;;5035470;28;19920;-75
2023/04/17 11:10:04;;;;;;;;;;;14.10;69.90;;;;;;5039437;28;19928;-76
2023/04/17 11:12:30;;;;;;;;;;;14.10;69.90;;;;;;5065062;28;19921;-77
2023/04/17 11:15:00;;;;;;;;;;;14.10;69.90;;;;;;5065466;28;19931;-76
2023/04/17 11:17:25;;;;;;;;;;;14.20;69.90;;;;;;5036581;28;20402;-78
2023/04/17 11:19:52;;;;;;;;;;;14.20;69.80;;;;;;5064443;28;20047;-76
2023/04/17 11:22:18;;;;;;;;;;;14.30;69.80;;;;;;5038290;28;19932;-76
2023/04/17 11:24:43;;;;;;;;;;;14.30;69.80;;;;;;5052243;28;19925;-77
2023/04/17 11:27:09;;;;;;;;;;;14.30;69.80;;;;;;5064904;28;20604;-77
2023/04/17 11:29:34;;;;;;;;;;;14.30;69.70;;;;;;5052593;28;19924;-76
2023/04/17 11:32:00;;;;;;;;;;;14.20;69.70;;;;;;5049803;28;19920;-77
2023/04/17 11:34:25;;;;;;;;;;;14.20;69.70;;;;;;5034430;28;19924;-77
2023/04/17 11:36:51;;;;;;;;;;;14.20;69.70;;;;;;5045930;28;20016;-76
2023/04/17 11:39:18;;;;;;;;;;;14.20;69.70;;;;;;5027268;28;20641;-77
2023/04/17 11:41:43;;;;;;;;;;;14.30;69.70;;;;;;5041876;28;20410;-77
2023/04/17 11:44:09;;;;;;;;;;;14.20;69.60;;;;;;5045923;28;19924;-76
2023/04/17 11:46:34;;;;;;;;;;;14.20;69.70;;;;;;5044792;28;20005;-76
2023/04/17 11:49:02;;;;;;;;;;;14.20;69.60;;;;;;5031992;28;19921;-78
2023/04/17 11:51:28;;;;;;;;;;;14.20;69.60;;;;;;5045892;28;19921;-77
2023/04/17 11:53:54;;;;;;;;;;;14.10;69.60;;;;;;5044787;28;19929;-76
2023/04/17 11:56:20;;;;;;;;;;;14.10;69.60;;;;;;5029112;28;19991;-77
2023/04/17 11:58:46;;;;;;;;;;;14.10;69.70;;;;;;5035574;28;19917;-77
2023/04/17 12:01:12;;;;;;;;;;;14.00;69.60;;;;;;5030541;28;19924;-76
2023/04/17 12:03:37;;;;;;;;;;;14.00;69.70;;;;;;5028288;28;19917;-77
2023/04/17 12:06:03;;;;;;;;;;;14.00;69.70;;;;;;5032572;28;19942;-77
2023/04/17 12:08:29;;;;;;;;;;;14.00;69.70;;;;;;5046077;28;19928;-77
2023/04/17 12:10:54;;;;;;;;;;;14.00;69.70;;;;;;5043622;28;19973;-77
2023/04/17 12:13:20;;;;;;;;;;;14.00;69.70;;;;;;5045928;28;19925;-77
2023/04/17 12:15:45;;;;;;;;;;;14.00;69.70;;;;;;5026424;28;19964;-78
2023/04/17 12:18:11;;;;;;;;;;;14.00;69.70;;;;;;5044451;28;19951;-77
2023/04/17 12:20:36;;;;;;;;;;;14.00;69.80;;;;;;5041672;28;20457;-77
2023/04/17 12:23:02;;;;;;;;;;;14.10;69.70;;;;;;5030101;28;20608;-77
2023/04/17 12:25:28;;;;;;;;;;;14.10;69.70;;;;;;5046013;28;19959;-77
2023/04/17 12:27:55;;;;;;;;;;;14.10;69.60;;;;;;5044428;28;21955;-76
2023/04/17 12:30:22;;;;;;;;;;;14.10;69.60;;;;;;5029955;28;19929;-76
2023/04/17 12:32:48;;;;;;;;;;;14.10;69.50;;;;;;5045463;28;20451;-77
2023/04/17 12:35:14;;;;;;;;;;;14.10;69.50;;;;;;5041546;28;19936;-77
2023/04/17 12:37:40;;;;;;;;;;;14.10;69.50;;;;;;5030487;28;19921;-78
2023/04/17 12:40:06;;;;;;;;;;;14.10;69.50;;;;;;5024790;28;19928;-76
2023/04/17 12:42:32;;;;;;;;;;;14.10;69.50;;;;;;5028119;28;20004;-77
2023/04/17 12:44:57;;;;;;;;;;;14.10;69.50;;;;;;5028021;28;19920;-78
2023/04/17 12:47:23;;;;;;;;;;;14.10;69.60;;;;;;5042556;28;20468;-78
2023/04/17 12:49:48;;;;;;;;;;;14.10;69.50;;;;;;5047147;28;19928;-76
2023/04/17 12:52:14;;;;;;;;;;;14.10;69.50;;;;;;5030866;28;19925;-77
2023/04/17 12:54:39;;;;;;;;;;;14.00;69.50;;;;;;5030579;28;20382;-76
2023/04/17 12:57:05;;;;;;;;;;;14.00;69.40;;;;;;5028837;28;20607;-77
2023/04/17 12:59:30;;;;;;;;;;;14.10;69.40;;;;;;5047822;28;19928;-76
2023/04/17 13:01:56;;;;;;;;;;;14.00;69.40;;;;;;5032891;28;19964;-77
2023/04/17 13:04:21;;;;;;;;;;;14.00;69.40;;;;;;5031585;28;19928;-76
2023/04/17 13:06:47;;;;;;;;;;;14.00;69.40;;;;;;5030152;28;20692;-77
2023/04/17 13:09:12;;;;;;;;;;;13.90;69.40;;;;;;5029286;28;19925;-77
2023/04/17 13:11:38;;;;;;;;;;;13.90;69.40;;;;;;5033217;28;19920;-76
2023/04/17 13:14:03;;;;;;;;;;;13.90;69.50;;;;;;5026543;28;20346;-78
2023/04/17 13:16:28;;;;;;;;;;;13.80;69.40;;;;;;5030203;28;20017;-77
2023/04/17 13:18:54;;;;;;;;;;;13.80;69.60;;;;;;5027338;28;19996;-76
2023/04/17 13:21:19;;;;;;;;;;;13.70;69.60;;;;;;5027052;28;20434;-77
2023/04/17 13:23:45;;;;;;;;;;;13.70;69.60;;;;;;5030141;28;19924;-77
2023/04/17 13:26:10;;;;;;;;;;;13.70;69.70;;;;;;5036063;28;19920;-77
2023/04/17 13:28:36;;;;;;;;;;;13.70;69.70;;;;;;5043458;28;19929;-77
2023/04/17 13:31:01;;;;;;;;;;;13.80;69.70;;;;;;5027888;28;19964;-78
2023/04/17 13:33:27;;;;;;;;;;;13.80;69.70;;;;;;5032378;28;19932;-78
2023/04/17 13:35:52;;;;;;;;;;;13.80;69.60;;;;;;5030457;28;19928;-78
2023/04/17 13:38:18;;;;;;;;;;;13.80;69.60;;;;;;5028289;28;20595;-77
2023/04/17 13:40:43;;;;;;;;;;;13.90;69.60;;;;;;5041433;28;19923;-77
2023/04/17 13:43:09;;;;;;;;;;;13.90;69.50;;;;;;5060900;28;19924;-74
2023/04/17 13:45:36;;;;;;;;;;;13.90;69.30;;;;;;5057136;28;19951;-77
2023/04/17 13:48:01;;;;;;;;;;;14.00;69.40;;;;;;5034916;28;19935;-77
2023/04/17 13:50:26;;;;;;;;;;;14.00;69.30;;;;;;5039152;28;19916;-77
2023/04/17 13:52:52;;;;;;;;;;;13.90;69.20;;;;;;5048362;28;19927;-77
2023/04/17 13:55:17;;;;;;;;;;;13.90;69.30;;;;;;5035990;28;19931;-77
2023/04/17 13:57:43;;;;;;;;;;;13.80;69.30;;;;;;5062580;28;19951;-78
2023/04/17 14:00:09;;;;;;;;;;;13.90;69.40;;;;;;5037481;28;19931;-77
2023/04/17 14:02:35;;;;;;;;;;;13.80;69.40;;;;;;5069774;28;19939;-77
2023/04/17 14:05:00;;;;;;;;;;;13.80;69.30;;;;;;5033822;28;19920;-77
2023/04/17 14:07:26;;;;;;;;;;;13.80;69.30;;;;;;5050160;28;19920;-77
2023/04/17 14:09:51;;;;;;;;;;;13.80;69.30;;;;;;5034488;28;19946;-77
2023/04/17 14:12:19;;;;;;;;;;;13.80;69.40;;;;;;5034357;28;20854;-77
2023/04/17 14:14:45;;;;;;;;;;;13.80;69.40;;;;;;5039674;28;19940;-77
2023/04/17 14:17:11;;;;;;;;;;;13.80;70.10;;;;;;5071104;28;19921;-77
2023/04/17 14:19:36;;;;;;;;;;;13.80;69.40;;;;;;5071279;28;19920;-77
2023/04/17 14:22:01;;;;;;;;;;;13.80;69.30;;;;;;5057040;28;19958;-77